Mount Vernon, AL (36560)

9:33 AM CDT on July 27, 2016 (GMT -0500)
APRSWXNET | | Change Station

Elev 49 ft 31.15 °N, 88.00 °W | Updated 25 minutes ago

Mostly Cloudy
Mostly Cloudy
84 °F
Feels Like 94 °F
N
1
Wind Variable Wind from South
Gusts 0.0 mph

Today
High -- | Low -- °F
--% Chance of Precip.
Yesterday
High -- | Low -- °F
Precip. -- in
Pressure 30.06 in
Visibility 7.0 miles
Clouds Mostly Cloudy 2000 ft
Mostly Cloudy 25000 ft
Heat Index 94 °F
Dew Point 78 °F
Humidity 81%
Rainfall in
Snow Depth Not available.
6:06 AM 7:50 PM
Last Quarter, 43% visible
SPECI KMOB 271417Z 23005KT 7SM BKN020CB BKN250 29/25 A3006 RMK AO2 CB SW-W MOV NE T02890250 $
Pressure 30.06 in
Visibility 7.0 miles
Clouds Mostly Cloudy 2000 ft
Mostly Cloudy 25000 ft
Heat Index 94 °F
Dew Point 78 °F
Humidity 81%
Rainfall in
Snow Depth Not available.
6:06 AM 7:50 PM
Last Quarter, 43% visible
SPECI KMOB 271417Z 23005KT 7SM BKN020CB BKN250 29/25 A3006 RMK AO2 CB SW-W MOV NE T02890250 $

10-Day Weather Forecast

Almanac

Astronomy

Jul. 27, 2016 Rise Set
Actual Time
Civil Twilight
Nautical Twilight
Astronomical Twilight
Moon
Length of Visible Light
Length of Day
Tomorrow will be .
, % of the Moon is Illuminated

Today's Extremes

State Highs State Lows

Community

WunderPhotos

Upload Photos

1,927,847 photos uploaded!

WunderBlog® & News

Nearby

Air Quality

  Air Quality AQ Index Pollutant
Not available.

Snow Depth

Station Depth Elevation

Earthquake Activity

City Distance Mag. Time & Date
Minimum magnitude displayed is 2.5.

Coastal Water Temperatures

Place Temperature

Stations

Nearby Weather Stations

Station Location Temp. Windchill Dew Point Humidity Wind Precip. Elev Updated Type
                   

Watches & Warnings

There are currently no watches in effect.